Aguti, Brazil
Current Conditions -  °F | °C
As of 12:00 AM on Monday 22 Dec 2014 (Local Time) from SBNF Reporting Station
Light Rain Light Rain  
Wind Chill: 82°   Ceiling: Unl
Heat Index: 92°   Visibility: 6mi
Dew Point: 79°   Wind: 7mph
Humidity: 89%   Direction: 270°W
Pressure: 29.68"   Gusts: NA
Location:  27.32°S, 49.12°W
Report Text: SBNF 220200Z 27006KT 9999 -RA FEW015 SCT100 28/26 Q1005
Loading
Personal Weather Stations






























Interactive Weather Map New forecast layout! Learn more

10-Day Weather Forecast

Advertisements
Track Severe Weather on mobile